sensor_id;sensor_type;location;lat;lon;timestamp;temperature;humidity
15630;DHT22;7914;50.842;0.166;2023-05-07T00:02:24;13.30;100.00
15630;DHT22;7914;50.842;0.166;2023-05-07T00:04:49;13.30;100.00
15630;DHT22;7914;50.842;0.166;2023-05-07T00:07:15;13.20;100.00
15630;DHT22;7914;50.842;0.166;2023-05-07T00:09:41;13.20;100.00
15630;DHT22;7914;50.842;0.166;2023-05-07T00:12:07;13.30;100.00
15630;DHT22;7914;50.842;0.166;2023-05-07T00:14:33;13.30;100.00
15630;DHT22;7914;50.842;0.166;2023-05-07T00:16:58;13.20;100.00
15630;DHT22;7914;50.842;0.166;2023-05-07T00:19:24;13.20;100.00
15630;DHT22;7914;50.842;0.166;2023-05-07T00:21:50;13.10;100.00
15630;DHT22;7914;50.842;0.166;2023-05-07T00:24:15;13.10;100.00
15630;DHT22;7914;50.842;0.166;2023-05-07T00:26:41;13.10;100.00
15630;DHT22;7914;50.842;0.166;2023-05-07T00:29:07;13.10;100.00
15630;DHT22;7914;50.842;0.166;2023-05-07T00:31:33;13.10;100.00
15630;DHT22;7914;50.842;0.166;2023-05-07T00:33:59;13.20;100.00
15630;DHT22;7914;50.842;0.166;2023-05-07T00:36:24;13.20;100.00
15630;DHT22;7914;50.842;0.166;2023-05-07T00:38:51;13.20;100.00
15630;DHT22;7914;50.842;0.166;2023-05-07T00:41:17;13.30;100.00
15630;DHT22;7914;50.842;0.166;2023-05-07T00:43:43;13.30;100.00
15630;DHT22;7914;50.842;0.166;2023-05-07T00:46:08;13.30;100.00
15630;DHT22;7914;50.842;0.166;2023-05-07T00:48:35;13.30;100.00
15630;DHT22;7914;50.842;0.166;2023-05-07T00:51:01;13.30;100.00
15630;DHT22;7914;50.842;0.166;2023-05-07T00:53:26;13.20;100.00
15630;DHT22;7914;50.842;0.166;2023-05-07T00:55:52;13.20;100.00
15630;DHT22;7914;50.842;0.166;2023-05-07T00:58:19;13.30;100.00
15630;DHT22;7914;50.842;0.166;2023-05-07T01:00:45;13.30;100.00
15630;DHT22;7914;50.842;0.166;2023-05-07T01:03:11;13.30;100.00
15630;DHT22;7914;50.842;0.166;2023-05-07T01:05:36;13.40;100.00
15630;DHT22;7914;50.842;0.166;2023-05-07T01:08:02;13.30;100.00
15630;DHT22;7914;50.842;0.166;2023-05-07T01:10:29;13.20;100.00
15630;DHT22;7914;50.842;0.166;2023-05-07T01:12:58;13.30;100.00
15630;DHT22;7914;50.842;0.166;2023-05-07T01:15:25;13.30;100.00
15630;DHT22;7914;50.842;0.166;2023-05-07T01:17:51;13.30;100.00
15630;DHT22;7914;50.842;0.166;2023-05-07T01:20:18;13.30;100.00
15630;DHT22;7914;50.842;0.166;2023-05-07T01:22:44;13.20;100.00
15630;DHT22;7914;50.842;0.166;2023-05-07T01:25:10;13.20;100.00
15630;DHT22;7914;50.842;0.166;2023-05-07T01:27:36;13.20;100.00
15630;DHT22;7914;50.842;0.166;2023-05-07T01:30:06;13.20;100.00
15630;DHT22;7914;50.842;0.166;2023-05-07T01:32:53;13.20;100.00
15630;DHT22;7914;50.842;0.166;2023-05-07T01:35:27;13.20;100.00
15630;DHT22;7914;50.842;0.166;2023-05-07T01:37:54;13.20;100.00
15630;DHT22;7914;50.842;0.166;2023-05-07T01:40:20;13.20;100.00
15630;DHT22;7914;50.842;0.166;2023-05-07T01:42:47;13.20;100.00
15630;DHT22;7914;50.842;0.166;2023-05-07T01:45:14;13.20;100.00
15630;DHT22;7914;50.842;0.166;2023-05-07T01:47:39;13.30;100.00
15630;DHT22;7914;50.842;0.166;2023-05-07T01:50:06;13.30;100.00
15630;DHT22;7914;50.842;0.166;2023-05-07T01:52:34;13.30;100.00
15630;DHT22;7914;50.842;0.166;2023-05-07T01:55:00;13.30;100.00
15630;DHT22;7914;50.842;0.166;2023-05-07T01:57:26;13.30;100.00
15630;DHT22;7914;50.842;0.166;2023-05-07T01:59:51;13.30;100.00
15630;DHT22;7914;50.842;0.166;2023-05-07T02:02:17;13.30;100.00
15630;DHT22;7914;50.842;0.166;2023-05-07T02:04:43;13.20;100.00
15630;DHT22;7914;50.842;0.166;2023-05-07T02:07:08;13.20;100.00
15630;DHT22;7914;50.842;0.166;2023-05-07T02:09:34;13.20;100.00
15630;DHT22;7914;50.842;0.166;2023-05-07T02:12:00;13.20;100.00
15630;DHT22;7914;50.842;0.166;2023-05-07T02:14:25;13.20;100.00
15630;DHT22;7914;50.842;0.166;2023-05-07T02:16:51;13.10;100.00
15630;DHT22;7914;50.842;0.166;2023-05-07T02:19:17;13.00;100.00
15630;DHT22;7914;50.842;0.166;2023-05-07T02:21:43;12.90;100.00
15630;DHT22;7914;50.842;0.166;2023-05-07T02:24:09;12.90;100.00
15630;DHT22;7914;50.842;0.166;2023-05-07T02:26:35;12.90;100.00
15630;DHT22;7914;50.842;0.166;2023-05-07T02:29:00;13.00;100.00
15630;DHT22;7914;50.842;0.166;2023-05-07T02:31:26;13.00;100.00
15630;DHT22;7914;50.842;0.166;2023-05-07T02:33:52;13.00;100.00
15630;DHT22;7914;50.842;0.166;2023-05-07T02:36:17;13.00;100.00
15630;DHT22;7914;50.842;0.166;2023-05-07T02:38:43;13.00;100.00
15630;DHT22;7914;50.842;0.166;2023-05-07T02:41:09;13.00;100.00
15630;DHT22;7914;50.842;0.166;2023-05-07T02:43:34;13.00;100.00
15630;DHT22;7914;50.842;0.166;2023-05-07T02:48:27;12.80;100.00
15630;DHT22;7914;50.842;0.166;2023-05-07T02:50:52;12.80;100.00
15630;DHT22;7914;50.842;0.166;2023-05-07T02:53:18;12.90;100.00
15630;DHT22;7914;50.842;0.166;2023-05-07T02:55:44;12.80;100.00
15630;DHT22;7914;50.842;0.166;2023-05-07T02:58:09;12.80;100.00
15630;DHT22;7914;50.842;0.166;2023-05-07T03:00:35;12.70;100.00
15630;DHT22;7914;50.842;0.166;2023-05-07T03:03:01;12.60;100.00
15630;DHT22;7914;50.842;0.166;2023-05-07T03:05:26;12.60;100.00
15630;DHT22;7914;50.842;0.166;2023-05-07T03:07:52;12.60;100.00
15630;DHT22;7914;50.842;0.166;2023-05-07T03:10:18;12.60;100.00
15630;DHT22;7914;50.842;0.166;2023-05-07T03:12:44;12.60;100.00
15630;DHT22;7914;50.842;0.166;2023-05-07T03:15:10;12.60;100.00
15630;DHT22;7914;50.842;0.166;2023-05-07T03:17:38;12.60;100.00
15630;DHT22;7914;50.842;0.166;2023-05-07T03:20:04;12.60;100.00
15630;DHT22;7914;50.842;0.166;2023-05-07T03:22:30;12.70;100.00
15630;DHT22;7914;50.842;0.166;2023-05-07T03:24:55;12.70;100.00
15630;DHT22;7914;50.842;0.166;2023-05-07T03:27:21;12.70;100.00
15630;DHT22;7914;50.842;0.166;2023-05-07T03:29:47;12.80;100.00
15630;DHT22;7914;50.842;0.166;2023-05-07T03:32:13;12.70;100.00
15630;DHT22;7914;50.842;0.166;2023-05-07T03:34:38;12.70;100.00
15630;DHT22;7914;50.842;0.166;2023-05-07T03:37:04;12.70;100.00
15630;DHT22;7914;50.842;0.166;2023-05-07T03:39:30;12.70;100.00
15630;DHT22;7914;50.842;0.166;2023-05-07T03:41:57;12.60;100.00
15630;DHT22;7914;50.842;0.166;2023-05-07T03:44:23;12.60;100.00
15630;DHT22;7914;50.842;0.166;2023-05-07T03:46:49;12.50;100.00
15630;DHT22;7914;50.842;0.166;2023-05-07T03:49:14;12.50;100.00
15630;DHT22;7914;50.842;0.166;2023-05-07T03:51:40;12.60;100.00
15630;DHT22;7914;50.842;0.166;2023-05-07T03:54:06;12.60;100.00
15630;DHT22;7914;50.842;0.166;2023-05-07T03:56:31;12.60;100.00
15630;DHT22;7914;50.842;0.166;2023-05-07T03:58:57;12.60;100.00
15630;DHT22;7914;50.842;0.166;2023-05-07T04:01:23;12.50;100.00
15630;DHT22;7914;50.842;0.166;2023-05-07T04:03:48;12.40;100.00
15630;DHT22;7914;50.842;0.166;2023-05-07T04:06:16;12.40;100.00
15630;DHT22;7914;50.842;0.166;2023-05-07T04:08:42;12.40;100.00
15630;DHT22;7914;50.842;0.166;2023-05-07T04:11:08;12.40;100.00
15630;DHT22;7914;50.842;0.166;2023-05-07T04:13:34;12.40;100.00
15630;DHT22;7914;50.842;0.166;2023-05-07T04:16:01;12.40;100.00
15630;DHT22;7914;50.842;0.166;2023-05-07T04:18:28;12.40;100.00
15630;DHT22;7914;50.842;0.166;2023-05-07T04:20:54;12.40;100.00
15630;DHT22;7914;50.842;0.166;2023-05-07T04:23:19;12.40;100.00
15630;DHT22;7914;50.842;0.166;2023-05-07T04:25:45;12.30;100.00
15630;DHT22;7914;50.842;0.166;2023-05-07T04:28:11;12.30;100.00
15630;DHT22;7914;50.842;0.166;2023-05-07T04:30:38;12.40;100.00
15630;DHT22;7914;50.842;0.166;2023-05-07T04:33:03;12.40;100.00
15630;DHT22;7914;50.842;0.166;2023-05-07T04:35:29;12.40;100.00
15630;DHT22;7914;50.842;0.166;2023-05-07T04:37:55;12.40;100.00
15630;DHT22;7914;50.842;0.166;2023-05-07T04:40:20;12.50;100.00
15630;DHT22;7914;50.842;0.166;2023-05-07T04:42:46;12.40;100.00
15630;DHT22;7914;50.842;0.166;2023-05-07T04:45:12;12.40;100.00
15630;DHT22;7914;50.842;0.166;2023-05-07T04:47:38;12.40;100.00
15630;DHT22;7914;50.842;0.166;2023-05-07T04:50:05;12.40;100.00
15630;DHT22;7914;50.842;0.166;2023-05-07T04:52:31;12.30;100.00
15630;DHT22;7914;50.842;0.166;2023-05-07T04:54:59;12.40;100.00
15630;DHT22;7914;50.842;0.166;2023-05-07T04:57:25;12.40;100.00
15630;DHT22;7914;50.842;0.166;2023-05-07T04:59:50;12.40;100.00
15630;DHT22;7914;50.842;0.166;2023-05-07T05:02:16;12.40;100.00
15630;DHT22;7914;50.842;0.166;2023-05-07T05:04:41;12.40;100.00
15630;DHT22;7914;50.842;0.166;2023-05-07T05:07:07;12.40;100.00
15630;DHT22;7914;50.842;0.166;2023-05-07T05:09:33;12.40;100.00
15630;DHT22;7914;50.842;0.166;2023-05-07T05:11:59;12.50;100.00
15630;DHT22;7914;50.842;0.166;2023-05-07T05:14:24;12.40;100.00
15630;DHT22;7914;50.842;0.166;2023-05-07T05:16:50;12.40;100.00
15630;DHT22;7914;50.842;0.166;2023-05-07T05:19:16;12.40;100.00
15630;DHT22;7914;50.842;0.166;2023-05-07T05:21:41;12.40;100.00
15630;DHT22;7914;50.842;0.166;2023-05-07T05:24:07;12.50;100.00
15630;DHT22;7914;50.842;0.166;2023-05-07T05:26:33;12.60;100.00
15630;DHT22;7914;50.842;0.166;2023-05-07T05:28:59;12.60;100.00
15630;DHT22;7914;50.842;0.166;2023-05-07T05:31:24;12.60;100.00
15630;DHT22;7914;50.842;0.166;2023-05-07T05:33:50;12.70;100.00
15630;DHT22;7914;50.842;0.166;2023-05-07T05:36:16;12.70;100.00
15630;DHT22;7914;50.842;0.166;2023-05-07T05:38:42;12.70;100.00
15630;DHT22;7914;50.842;0.166;2023-05-07T05:41:08;12.70;100.00
15630;DHT22;7914;50.842;0.166;2023-05-07T05:43:33;12.70;100.00
15630;DHT22;7914;50.842;0.166;2023-05-07T05:45:59;12.70;100.00
15630;DHT22;7914;50.842;0.166;2023-05-07T05:48:25;12.70;100.00
15630;DHT22;7914;50.842;0.166;2023-05-07T05:50:51;12.60;100.00
15630;DHT22;7914;50.842;0.166;2023-05-07T05:53:17;12.60;100.00
15630;DHT22;7914;50.842;0.166;2023-05-07T05:55:42;12.60;100.00
15630;DHT22;7914;50.842;0.166;2023-05-07T05:58:09;12.50;100.00
15630;DHT22;7914;50.842;0.166;2023-05-07T06:00:35;12.50;100.00
15630;DHT22;7914;50.842;0.166;2023-05-07T06:03:00;12.40;100.00
15630;DHT22;7914;50.842;0.166;2023-05-07T06:05:26;12.50;100.00
15630;DHT22;7914;50.842;0.166;2023-05-07T06:07:52;12.40;100.00
15630;DHT22;7914;50.842;0.166;2023-05-07T06:10:18;12.40;100.00
15630;DHT22;7914;50.842;0.166;2023-05-07T06:12:43;12.50;100.00
15630;DHT22;7914;50.842;0.166;2023-05-07T06:15:10;12.50;100.00
15630;DHT22;7914;50.842;0.166;2023-05-07T06:17:35;12.50;100.00
15630;DHT22;7914;50.842;0.166;2023-05-07T06:20:01;12.60;100.00
15630;DHT22;7914;50.842;0.166;2023-05-07T06:22:27;12.70;100.00
15630;DHT22;7914;50.842;0.166;2023-05-07T06:24:52;12.80;100.00
15630;DHT22;7914;50.842;0.166;2023-05-07T06:27:18;12.80;100.00
15630;DHT22;7914;50.842;0.166;2023-05-07T06:29:44;12.90;100.00
15630;DHT22;7914;50.842;0.166;2023-05-07T06:32:13;13.00;100.00
15630;DHT22;7914;50.842;0.166;2023-05-07T06:34:39;13.00;100.00
15630;DHT22;7914;50.842;0.166;2023-05-07T06:37:06;13.10;100.00
15630;DHT22;7914;50.842;0.166;2023-05-07T06:39:32;13.10;100.00
15630;DHT22;7914;50.842;0.166;2023-05-07T06:41:58;13.10;100.00
15630;DHT22;7914;50.842;0.166;2023-05-07T06:44:24;13.00;100.00
15630;DHT22;7914;50.842;0.166;2023-05-07T06:46:49;13.10;100.00
15630;DHT22;7914;50.842;0.166;2023-05-07T06:49:15;13.20;100.00
15630;DHT22;7914;50.842;0.166;2023-05-07T06:51:41;13.30;100.00
15630;DHT22;7914;50.842;0.166;2023-05-07T06:54:07;13.30;100.00
15630;DHT22;7914;50.842;0.166;2023-05-07T06:56:33;13.30;100.00
15630;DHT22;7914;50.842;0.166;2023-05-07T06:59:00;13.30;100.00
15630;DHT22;7914;50.842;0.166;2023-05-07T07:01:25;13.30;100.00
15630;DHT22;7914;50.842;0.166;2023-05-07T07:03:51;13.40;100.00
15630;DHT22;7914;50.842;0.166;2023-05-07T07:06:17;13.40;100.00
15630;DHT22;7914;50.842;0.166;2023-05-07T07:08:43;13.50;100.00
15630;DHT22;7914;50.842;0.166;2023-05-07T07:11:10;13.50;100.00
15630;DHT22;7914;50.842;0.166;2023-05-07T07:13:36;13.50;100.00
15630;DHT22;7914;50.842;0.166;2023-05-07T07:16:02;13.40;100.00
15630;DHT22;7914;50.842;0.166;2023-05-07T07:18:28;13.40;100.00
15630;DHT22;7914;50.842;0.166;2023-05-07T07:20:53;13.50;100.00
15630;DHT22;7914;50.842;0.166;2023-05-07T07:23:19;13.60;100.00
15630;DHT22;7914;50.842;0.166;2023-05-07T07:25:45;13.60;100.00
15630;DHT22;7914;50.842;0.166;2023-05-07T07:28:11;13.60;100.00
15630;DHT22;7914;50.842;0.166;2023-05-07T07:30:37;13.50;100.00
15630;DHT22;7914;50.842;0.166;2023-05-07T07:33:03;13.40;100.00
15630;DHT22;7914;50.842;0.166;2023-05-07T07:35:29;13.50;100.00
15630;DHT22;7914;50.842;0.166;2023-05-07T07:37:55;13.50;100.00
15630;DHT22;7914;50.842;0.166;2023-05-07T07:40:21;13.70;100.00
15630;DHT22;7914;50.842;0.166;2023-05-07T07:42:47;13.70;100.00
15630;DHT22;7914;50.842;0.166;2023-05-07T07:45:13;13.80;100.00
15630;DHT22;7914;50.842;0.166;2023-05-07T07:47:40;13.70;100.00
15630;DHT22;7914;50.842;0.166;2023-05-07T07:50:06;13.80;100.00
15630;DHT22;7914;50.842;0.166;2023-05-07T07:52:32;13.80;100.00
15630;DHT22;7914;50.842;0.166;2023-05-07T07:54:58;13.70;100.00
15630;DHT22;7914;50.842;0.166;2023-05-07T07:57:24;13.80;100.00
15630;DHT22;7914;50.842;0.166;2023-05-07T07:59:50;13.80;100.00
15630;DHT22;7914;50.842;0.166;2023-05-07T08:02:16;13.80;100.00
15630;DHT22;7914;50.842;0.166;2023-05-07T08:04:42;14.00;100.00
15630;DHT22;7914;50.842;0.166;2023-05-07T08:07:09;14.10;99.80
15630;DHT22;7914;50.842;0.166;2023-05-07T08:09:36;14.00;99.20
15630;DHT22;7914;50.842;0.166;2023-05-07T08:12:02;13.90;99.60
15630;DHT22;7914;50.842;0.166;2023-05-07T08:14:28;14.00;99.20
15630;DHT22;7914;50.842;0.166;2023-05-07T08:16:54;14.00;100.00
15630;DHT22;7914;50.842;0.166;2023-05-07T08:19:20;14.20;99.30
15630;DHT22;7914;50.842;0.166;2023-05-07T08:21:47;14.20;99.50
15630;DHT22;7914;50.842;0.166;2023-05-07T08:24:14;14.30;98.70
15630;DHT22;7914;50.842;0.166;2023-05-07T08:26:40;14.50;99.20
15630;DHT22;7914;50.842;0.166;2023-05-07T08:29:06;14.60;97.90
15630;DHT22;7914;50.842;0.166;2023-05-07T08:31:32;14.50;97.10
15630;DHT22;7914;50.842;0.166;2023-05-07T08:33:58;14.40;98.20
15630;DHT22;7914;50.842;0.166;2023-05-07T08:36:24;14.40;98.60
15630;DHT22;7914;50.842;0.166;2023-05-07T08:38:51;14.50;99.30
15630;DHT22;7914;50.842;0.166;2023-05-07T08:41:17;14.70;98.40
15630;DHT22;7914;50.842;0.166;2023-05-07T08:43:47;14.80;98.70
15630;DHT22;7914;50.842;0.166;2023-05-07T08:46:17;14.90;97.70
15630;DHT22;7914;50.842;0.166;2023-05-07T08:48:44;15.00;98.00
15630;DHT22;7914;50.842;0.166;2023-05-07T08:51:13;15.00;97.70
15630;DHT22;7914;50.842;0.166;2023-05-07T08:53:41;15.20;95.90
15630;DHT22;7914;50.842;0.166;2023-05-07T08:56:08;15.40;93.60
15630;DHT22;7914;50.842;0.166;2023-05-07T08:58:34;15.40;92.80
15630;DHT22;7914;50.842;0.166;2023-05-07T09:01:12;15.40;92.60
15630;DHT22;7914;50.842;0.166;2023-05-07T09:03:38;15.30;92.90
15630;DHT22;7914;50.842;0.166;2023-05-07T09:06:04;15.30;93.20
15630;DHT22;7914;50.842;0.166;2023-05-07T09:08:32;15.30;93.30
15630;DHT22;7914;50.842;0.166;2023-05-07T09:10:58;15.30;93.00
15630;DHT22;7914;50.842;0.166;2023-05-07T09:13:24;15.20;93.00
15630;DHT22;7914;50.842;0.166;2023-05-07T09:15:50;15.20;93.30
15630;DHT22;7914;50.842;0.166;2023-05-07T09:18:16;15.10;93.40
15630;DHT22;7914;50.842;0.166;2023-05-07T09:20:41;15.10;93.60
15630;DHT22;7914;50.842;0.166;2023-05-07T09:23:08;15.10;93.70
15630;DHT22;7914;50.842;0.166;2023-05-07T09:25:35;15.20;93.90
15630;DHT22;7914;50.842;0.166;2023-05-07T09:28:02;15.20;93.80
15630;DHT22;7914;50.842;0.166;2023-05-07T09:30:32;15.20;94.30
15630;DHT22;7914;50.842;0.166;2023-05-07T09:32:59;15.20;93.70
15630;DHT22;7914;50.842;0.166;2023-05-07T09:35:26;15.20;93.10
15630;DHT22;7914;50.842;0.166;2023-05-07T09:38:00;15.30;93.10
15630;DHT22;7914;50.842;0.166;2023-05-07T09:40:28;15.30;93.20
15630;DHT22;7914;50.842;0.166;2023-05-07T09:42:55;15.30;93.30
15630;DHT22;7914;50.842;0.166;2023-05-07T09:45:27;15.30;93.70
15630;DHT22;7914;50.842;0.166;2023-05-07T09:47:55;15.40;93.60
15630;DHT22;7914;50.842;0.166;2023-05-07T09:50:29;15.50;92.60
15630;DHT22;7914;50.842;0.166;2023-05-07T09:52:56;15.60;92.60
15630;DHT22;7914;50.842;0.166;2023-05-07T09:55:23;15.60;92.30
15630;DHT22;7914;50.842;0.166;2023-05-07T09:57:53;15.60;92.40
15630;DHT22;7914;50.842;0.166;2023-05-07T10:00:20;15.60;92.30
15630;DHT22;7914;50.842;0.166;2023-05-07T10:02:50;15.60;92.40
15630;DHT22;7914;50.842;0.166;2023-05-07T10:05:21;15.60;92.20
15630;DHT22;7914;50.842;0.166;2023-05-07T10:07:48;15.70;92.40
15630;DHT22;7914;50.842;0.166;2023-05-07T10:10:14;15.70;92.00
15630;DHT22;7914;50.842;0.166;2023-05-07T10:12:41;15.80;92.10
15630;DHT22;7914;50.842;0.166;2023-05-07T10:15:07;15.80;92.20
15630;DHT22;7914;50.842;0.166;2023-05-07T10:17:40;15.90;92.10
15630;DHT22;7914;50.842;0.166;2023-05-07T10:20:07;15.90;92.20
15630;DHT22;7914;50.842;0.166;2023-05-07T10:22:41;16.00;91.50
15630;DHT22;7914;50.842;0.166;2023-05-07T10:25:34;16.10;91.00
15630;DHT22;7914;50.842;0.166;2023-05-07T10:28:06;16.10;90.80
15630;DHT22;7914;50.842;0.166;2023-05-07T10:33:13;16.00;90.70
15630;DHT22;7914;50.842;0.166;2023-05-07T10:35:43;16.00;91.10
15630;DHT22;7914;50.842;0.166;2023-05-07T10:38:09;16.00;91.80
15630;DHT22;7914;50.842;0.166;2023-05-07T10:40:36;16.00;91.90
15630;DHT22;7914;50.842;0.166;2023-05-07T10:43:03;16.10;90.70
15630;DHT22;7914;50.842;0.166;2023-05-07T10:45:31;16.10;90.80
15630;DHT22;7914;50.842;0.166;2023-05-07T10:50:31;16.10;91.50
15630;DHT22;7914;50.842;0.166;2023-05-07T10:55:49;16.10;91.60
15630;DHT22;7914;50.842;0.166;2023-05-07T10:58:25;16.10;91.00
15630;DHT22;7914;50.842;0.166;2023-05-07T11:00:59;16.10;91.20
15630;DHT22;7914;50.842;0.166;2023-05-07T11:03:26;16.30;91.20
15630;DHT22;7914;50.842;0.166;2023-05-07T11:06:14;16.30;90.10
15630;DHT22;7914;50.842;0.166;2023-05-07T11:09:00;16.30;89.90
15630;DHT22;7914;50.842;0.166;2023-05-07T11:11:49;16.40;90.00
15630;DHT22;7914;50.842;0.166;2023-05-07T11:17:06;16.40;90.60
15630;DHT22;7914;50.842;0.166;2023-05-07T11:19:52;16.50;89.90
15630;DHT22;7914;50.842;0.166;2023-05-07T11:24:56;16.50;89.80
15630;DHT22;7914;50.842;0.166;2023-05-07T11:27:29;16.30;89.80
15630;DHT22;7914;50.842;0.166;2023-05-07T11:29:55;16.20;91.20
15630;DHT22;7914;50.842;0.166;2023-05-07T11:32:29;16.20;91.50
15630;DHT22;7914;50.842;0.166;2023-05-07T11:34:57;16.20;92.00
15630;DHT22;7914;50.842;0.166;2023-05-07T11:37:25;16.30;91.70
15630;DHT22;7914;50.842;0.166;2023-05-07T11:40:07;16.30;92.00
15630;DHT22;7914;50.842;0.166;2023-05-07T11:42:39;16.60;91.40
15630;DHT22;7914;50.842;0.166;2023-05-07T11:45:06;16.80;90.40
15630;DHT22;7914;50.842;0.166;2023-05-07T11:47:33;16.90;87.20
15630;DHT22;7914;50.842;0.166;2023-05-07T11:50:06;17.00;87.60
15630;DHT22;7914;50.842;0.166;2023-05-07T11:52:33;17.00;88.50
15630;DHT22;7914;50.842;0.166;2023-05-07T11:55:00;16.90;88.80
15630;DHT22;7914;50.842;0.166;2023-05-07T11:57:27;17.00;89.20
15630;DHT22;7914;50.842;0.166;2023-05-07T11:59:56;17.00;89.00
15630;DHT22;7914;50.842;0.166;2023-05-07T12:02:23;17.10;88.70
15630;DHT22;7914;50.842;0.166;2023-05-07T12:04:50;17.00;89.00
15630;DHT22;7914;50.842;0.166;2023-05-07T12:07:17;17.00;90.00
15630;DHT22;7914;50.842;0.166;2023-05-07T12:09:44;17.20;88.70
15630;DHT22;7914;50.842;0.166;2023-05-07T12:12:11;17.10;88.20
15630;DHT22;7914;50.842;0.166;2023-05-07T12:14:43;17.10;87.50
15630;DHT22;7914;50.842;0.166;2023-05-07T12:17:11;17.00;88.40
15630;DHT22;7914;50.842;0.166;2023-05-07T12:19:38;17.00;88.40
15630;DHT22;7914;50.842;0.166;2023-05-07T12:22:05;17.10;88.40
15630;DHT22;7914;50.842;0.166;2023-05-07T12:24:48;17.10;89.00
15630;DHT22;7914;50.842;0.166;2023-05-07T12:27:17;17.20;87.20
15630;DHT22;7914;50.842;0.166;2023-05-07T12:29:50;17.20;87.60
15630;DHT22;7914;50.842;0.166;2023-05-07T12:32:20;17.10;87.50
15630;DHT22;7914;50.842;0.166;2023-05-07T12:34:49;17.10;88.10
15630;DHT22;7914;50.842;0.166;2023-05-07T12:37:15;17.20;88.00
15630;DHT22;7914;50.842;0.166;2023-05-07T12:39:48;17.00;88.50
15630;DHT22;7914;50.842;0.166;2023-05-07T12:42:20;16.90;89.00
15630;DHT22;7914;50.842;0.166;2023-05-07T12:44:51;16.80;89.20
15630;DHT22;7914;50.842;0.166;2023-05-07T12:47:17;16.80;89.40
15630;DHT22;7914;50.842;0.166;2023-05-07T12:49:43;16.80;89.50
15630;DHT22;7914;50.842;0.166;2023-05-07T12:52:11;16.80;89.50
15630;DHT22;7914;50.842;0.166;2023-05-07T12:54:38;16.70;89.50
15630;DHT22;7914;50.842;0.166;2023-05-07T12:57:08;16.70;89.50
15630;DHT22;7914;50.842;0.166;2023-05-07T12:59:41;16.70;89.50
15630;DHT22;7914;50.842;0.166;2023-05-07T13:02:07;16.70;89.50
15630;DHT22;7914;50.842;0.166;2023-05-07T13:04:34;16.70;89.50
15630;DHT22;7914;50.842;0.166;2023-05-07T13:07:01;16.70;89.50
15630;DHT22;7914;50.842;0.166;2023-05-07T13:09:26;16.70;89.50
15630;DHT22;7914;50.842;0.166;2023-05-07T13:11:54;16.70;89.50
15630;DHT22;7914;50.842;0.166;2023-05-07T13:14:20;16.70;89.50
15630;DHT22;7914;50.842;0.166;2023-05-07T13:16:47;16.70;89.40
15630;DHT22;7914;50.842;0.166;2023-05-07T13:19:12;16.70;89.40
15630;DHT22;7914;50.842;0.166;2023-05-07T13:21:38;16.70;89.40
15630;DHT22;7914;50.842;0.166;2023-05-07T13:24:04;16.70;89.50
15630;DHT22;7914;50.842;0.166;2023-05-07T13:26:31;16.70;89.50
15630;DHT22;7914;50.842;0.166;2023-05-07T13:28:56;16.70;89.40
15630;DHT22;7914;50.842;0.166;2023-05-07T13:31:22;16.70;89.40
15630;DHT22;7914;50.842;0.166;2023-05-07T13:33:48;16.70;89.30
15630;DHT22;7914;50.842;0.166;2023-05-07T13:36:14;16.70;89.30
15630;DHT22;7914;50.842;0.166;2023-05-07T13:38:40;16.70;89.40
15630;DHT22;7914;50.842;0.166;2023-05-07T13:41:06;16.70;89.30
15630;DHT22;7914;50.842;0.166;2023-05-07T13:43:31;16.70;89.30
15630;DHT22;7914;50.842;0.166;2023-05-07T13:45:59;16.70;89.30
15630;DHT22;7914;50.842;0.166;2023-05-07T13:48:25;16.70;89.30
15630;DHT22;7914;50.842;0.166;2023-05-07T13:50:50;16.70;89.30
15630;DHT22;7914;50.842;0.166;2023-05-07T13:53:17;16.70;89.30
15630;DHT22;7914;50.842;0.166;2023-05-07T13:55:44;16.70;89.30
15630;DHT22;7914;50.842;0.166;2023-05-07T13:58:10;16.60;89.50
15630;DHT22;7914;50.842;0.166;2023-05-07T14:00:36;16.60;89.50
15630;DHT22;7914;50.842;0.166;2023-05-07T14:03:02;16.70;89.50
15630;DHT22;7914;50.842;0.166;2023-05-07T14:05:28;16.70;89.60
15630;DHT22;7914;50.842;0.166;2023-05-07T14:07:55;16.70;89.70
15630;DHT22;7914;50.842;0.166;2023-05-07T14:10:22;16.70;89.70
15630;DHT22;7914;50.842;0.166;2023-05-07T14:12:47;16.70;89.70
15630;DHT22;7914;50.842;0.166;2023-05-07T14:15:13;16.70;89.80
15630;DHT22;7914;50.842;0.166;2023-05-07T14:17:39;16.70;89.80
15630;DHT22;7914;50.842;0.166;2023-05-07T14:20:05;16.70;89.70
15630;DHT22;7914;50.842;0.166;2023-05-07T14:22:34;16.70;89.80
15630;DHT22;7914;50.842;0.166;2023-05-07T14:25:00;16.70;89.80
15630;DHT22;7914;50.842;0.166;2023-05-07T14:27:25;16.70;89.80
15630;DHT22;7914;50.842;0.166;2023-05-07T14:29:51;16.70;89.80
15630;DHT22;7914;50.842;0.166;2023-05-07T14:32:20;16.70;89.80
15630;DHT22;7914;50.842;0.166;2023-05-07T14:34:46;16.70;89.80
15630;DHT22;7914;50.842;0.166;2023-05-07T14:37:12;16.70;89.90
15630;DHT22;7914;50.842;0.166;2023-05-07T14:39:38;16.70;89.90
15630;DHT22;7914;50.842;0.166;2023-05-07T14:42:04;16.70;89.90
15630;DHT22;7914;50.842;0.166;2023-05-07T14:44:30;16.70;89.90
15630;DHT22;7914;50.842;0.166;2023-05-07T14:46:56;16.70;89.90
15630;DHT22;7914;50.842;0.166;2023-05-07T14:49:22;16.70;89.90
15630;DHT22;7914;50.842;0.166;2023-05-07T14:51:48;16.70;89.90
15630;DHT22;7914;50.842;0.166;2023-05-07T14:54:14;16.70;89.90
15630;DHT22;7914;50.842;0.166;2023-05-07T14:56:41;16.70;89.90
15630;DHT22;7914;50.842;0.166;2023-05-07T14:59:07;16.70;89.70
15630;DHT22;7914;50.842;0.166;2023-05-07T15:01:34;16.70;89.70
15630;DHT22;7914;50.842;0.166;2023-05-07T15:04:01;16.70;89.60
15630;DHT22;7914;50.842;0.166;2023-05-07T15:06:26;16.70;89.60
15630;DHT22;7914;50.842;0.166;2023-05-07T15:08:52;16.70;89.50
15630;DHT22;7914;50.842;0.166;2023-05-07T15:11:18;16.70;89.50
15630;DHT22;7914;50.842;0.166;2023-05-07T15:13:43;16.70;89.40
15630;DHT22;7914;50.842;0.166;2023-05-07T15:16:09;16.80;92.90
15630;DHT22;7914;50.842;0.166;2023-05-07T15:18:35;16.90;94.10
15630;DHT22;7914;50.842;0.166;2023-05-07T15:21:01;17.00;93.50
15630;DHT22;7914;50.842;0.166;2023-05-07T15:23:27;17.10;92.50
15630;DHT22;7914;50.842;0.166;2023-05-07T15:25:53;17.10;91.90
15630;DHT22;7914;50.842;0.166;2023-05-07T15:28:19;17.10;91.60
15630;DHT22;7914;50.842;0.166;2023-05-07T15:30:45;17.10;91.30
15630;DHT22;7914;50.842;0.166;2023-05-07T15:33:10;17.10;91.00
15630;DHT22;7914;50.842;0.166;2023-05-07T15:35:36;17.10;90.90
15630;DHT22;7914;50.842;0.166;2023-05-07T15:38:02;17.00;90.80
15630;DHT22;7914;50.842;0.166;2023-05-07T15:40:29;17.00;90.70
15630;DHT22;7914;50.842;0.166;2023-05-07T15:42:55;17.00;90.60
15630;DHT22;7914;50.842;0.166;2023-05-07T15:45:23;17.00;90.40
15630;DHT22;7914;50.842;0.166;2023-05-07T15:47:49;17.00;90.40
15630;DHT22;7914;50.842;0.166;2023-05-07T15:50:14;17.00;90.30
15630;DHT22;7914;50.842;0.166;2023-05-07T15:52:40;17.00;90.30